createdAt,value
2022-08-09T00:00:11.353Z,6.57
2022-08-09T00:02:42.893Z,6.35
2022-08-09T00:06:18.016Z,5.75
2022-08-09T00:08:10.042Z,7.37
2022-08-09T00:10:38.637Z,9.68
2022-08-09T00:13:08.433Z,5.22
2022-08-09T00:16:00.037Z,9.30
2022-08-09T00:18:35.690Z,6.05
2022-08-09T00:21:05.027Z,6.43
2022-08-09T00:23:57.368Z,6.28
2022-08-09T00:26:19.786Z,5.63
2022-08-09T00:28:58.165Z,7.55
2022-08-09T00:31:57.389Z,9.93
2022-08-09T00:34:14.399Z,9.77
2022-08-09T00:36:41.973Z,5.55
2022-08-09T00:39:16.967Z,6.22
2022-08-09T00:44:13.009Z,7.18
2022-08-09T00:44:43.701Z,7.70
2022-08-09T00:47:14.320Z,8.93
2022-08-09T00:49:42.651Z,9.73
2022-08-09T00:52:20.266Z,9.32
2022-08-09T00:54:48.511Z,6.95
2022-08-09T00:57:24.590Z,8.00
2022-08-09T01:00:03.032Z,6.50
2022-08-09T01:02:33.952Z,6.38
2022-08-09T01:05:14.329Z,8.93
2022-08-09T01:08:11.040Z,5.10
2022-08-09T01:10:47.295Z,7.57
2022-08-09T01:13:31.107Z,5.87
2022-08-09T01:16:12.962Z,8.35
2022-08-09T01:18:47.628Z,7.30
2022-08-09T01:21:44.956Z,7.93
2022-08-09T01:24:31.592Z,7.00
2022-08-09T01:27:13.258Z,7.03
2022-08-09T01:29:56.423Z,8.82
2022-08-09T01:32:34.240Z,6.63
2022-08-09T01:35:28.360Z,8.43
2022-08-09T01:38:10.635Z,8.82
2022-08-09T01:40:52.740Z,7.47
2022-08-09T01:43:50.639Z,6.72
2022-08-09T01:46:29.744Z,12.88
2022-08-09T01:49:10.547Z,8.82
2022-08-09T01:51:44.706Z,8.77
2022-08-09T01:54:25.721Z,9.27
2022-08-09T01:56:56.969Z,8.65
2022-08-09T01:59:24.282Z,9.57
2022-08-09T02:01:59.382Z,8.48
2022-08-09T02:04:31.628Z,8.85
2022-08-09T02:07:17.922Z,7.63
2022-08-09T02:10:01.371Z,7.85
2022-08-09T02:12:33.447Z,8.10
2022-08-09T02:15:03.055Z,9.80
2022-08-09T02:18:09.628Z,7.57
2022-08-09T02:20:25.230Z,9.83
2022-08-09T02:23:03.445Z,8.10
2022-08-09T02:25:42.649Z,9.40
2022-08-09T02:28:24.219Z,6.35
2022-08-09T02:30:55.911Z,8.60
2022-08-09T02:33:37.681Z,10.17
2022-08-09T02:36:22.905Z,9.80
2022-08-09T02:38:55.490Z,9.23
2022-08-09T02:41:31.826Z,9.52
2022-08-09T02:44:10.399Z,9.55
2022-08-09T02:46:52.255Z,8.83
2022-08-09T02:49:19.589Z,8.88
2022-08-09T02:51:57.972Z,10.27
2022-08-09T02:54:27.473Z,10.57
2022-08-09T02:56:57.138Z,12.45
2022-08-09T02:59:36.595Z,10.80
2022-08-09T03:02:11.997Z,10.15
2022-08-09T03:04:45.404Z,7.78
2022-08-09T03:07:14.650Z,9.23
2022-08-09T03:09:43.800Z,9.13
2022-08-09T03:12:23.277Z,10.27
2022-08-09T03:14:51.603Z,9.40
2022-08-09T03:17:26.655Z,9.60
2022-08-09T03:20:03.506Z,11.75
2022-08-09T03:22:41.946Z,11.85
2022-08-09T03:25:26.397Z,11.33
2022-08-09T03:28:02.324Z,13.95
2022-08-09T03:30:34.280Z,13.27
2022-08-09T03:33:17.327Z,10.68
2022-08-09T03:36:12.819Z,12.88
2022-08-09T03:38:42.742Z,11.87
2022-08-09T03:41:16.351Z,11.75
2022-08-09T03:44:07.627Z,12.48
2022-08-09T03:46:33.403Z,10.55
2022-08-09T03:49:04.038Z,14.02
2022-08-09T03:51:55.456Z,10.97
2022-08-09T03:54:29.262Z,11.60
2022-08-09T03:56:59.436Z,14.00
2022-08-09T03:59:43.330Z,12.43
2022-08-09T04:02:14.316Z,11.63
2022-08-09T04:04:45.610Z,10.57
2022-08-09T04:07:14.661Z,11.63
2022-08-09T04:09:49.991Z,13.15
2022-08-09T04:12:33.496Z,12.40
2022-08-09T04:15:01.962Z,11.43
2022-08-09T04:17:39.489Z,15.10
2022-08-09T04:20:11.615Z,12.98
2022-08-09T04:22:41.373Z,11.02
2022-08-09T04:25:13.008Z,11.35
2022-08-09T04:27:48.907Z,10.35
2022-08-09T04:30:23.471Z,11.43
2022-08-09T04:32:54.143Z,13.98
2022-08-09T04:35:21.846Z,13.00
2022-08-09T04:37:49.900Z,11.73
2022-08-09T04:40:19.691Z,12.05
2022-08-09T04:43:03.765Z,12.40
2022-08-09T04:45:35.761Z,11.75
2022-08-09T04:48:09.922Z,11.93
2022-08-09T04:50:38.224Z,10.02
2022-08-09T04:53:13.463Z,12.50
2022-08-09T04:55:58.795Z,11.00
2022-08-09T04:58:27.846Z,12.65
2022-08-09T05:00:55.902Z,13.75
2022-08-09T05:03:40.142Z,15.27
2022-08-09T05:06:21.948Z,13.38
2022-08-09T05:09:00.373Z,12.50
2022-08-09T05:11:32.146Z,10.05
2022-08-09T05:14:05.846Z,10.65
2022-08-09T05:16:33.769Z,11.07
2022-08-09T05:19:10.484Z,11.98
2022-08-09T05:21:46.675Z,9.83
2022-08-09T05:24:14.860Z,11.85
2022-08-09T05:26:45.496Z,11.43
2022-08-09T05:29:21.933Z,12.25
2022-08-09T05:31:57.602Z,11.02
2022-08-09T05:34:30.615Z,9.03
2022-08-09T05:37:06.887Z,12.70
2022-08-09T05:39:42.595Z,13.07
2022-08-09T05:42:17.812Z,10.85
2022-08-09T05:44:50.799Z,12.00
2022-08-09T05:47:22.819Z,10.60
2022-08-09T05:50:26.050Z,11.43
2022-08-09T05:52:42.438Z,13.65
2022-08-09T05:55:20.919Z,13.00
2022-08-09T05:57:50.937Z,12.52
2022-08-09T06:00:25.686Z,11.23
2022-08-09T06:02:54.387Z,13.18
2022-08-09T06:05:49.842Z,13.70
2022-08-09T06:08:11.671Z,14.65
2022-08-09T06:10:38.897Z,11.30
2022-08-09T06:13:12.480Z,12.23
2022-08-09T06:15:51.516Z,11.27
2022-08-09T06:18:20.456Z,11.13
2022-08-09T06:20:54.607Z,11.57
2022-08-09T06:23:55.626Z,11.35
2022-08-09T06:26:14.036Z,9.67
2022-08-09T06:28:43.469Z,9.20
2022-08-09T06:31:10.701Z,10.93
2022-08-09T06:33:40.602Z,9.48
2022-08-09T06:36:11.795Z,14.45
2022-08-09T06:38:42.972Z,10.17
2022-08-09T06:41:19.048Z,8.68
2022-08-09T06:43:47.440Z,10.80
2022-08-09T06:46:39.117Z,10.05
2022-08-09T06:49:02.070Z,9.52
2022-08-09T06:51:29.002Z,7.70
2022-08-09T06:53:55.930Z,10.98
2022-08-09T06:56:30.588Z,9.43
2022-08-09T07:00:54.358Z,11.45
2022-08-09T07:01:54.052Z,10.45
2022-08-09T07:04:24.792Z,12.07
2022-08-09T07:06:59.877Z,6.97
2022-08-09T07:09:56.469Z,9.07
2022-08-09T07:12:17.424Z,9.13
2022-08-09T07:14:44.518Z,8.82
2022-08-09T07:17:11.850Z,7.00
2022-08-09T07:19:38.838Z,6.97
2022-08-09T07:22:05.719Z,7.65
2022-08-09T07:24:40.032Z,10.57
2022-08-09T07:27:26.531Z,8.32
2022-08-09T07:29:58.806Z,9.23
2022-08-09T07:32:32.215Z,5.82
2022-08-09T07:35:10.599Z,5.47
2022-08-09T07:37:43.258Z,6.75
2022-08-09T07:40:16.942Z,6.53
2022-08-09T07:42:50.139Z,7.37
2022-08-09T07:45:33.272Z,4.68
2022-08-09T07:48:04.907Z,5.25
2022-08-09T07:50:34.627Z,5.72
2022-08-09T07:53:02.812Z,6.25
2022-08-09T07:55:41.630Z,4.43
2022-08-09T07:58:18.688Z,6.07
2022-08-09T08:00:55.786Z,4.05
2022-08-09T08:03:33.528Z,3.67
2022-08-09T08:06:04.425Z,5.57
2022-08-09T08:09:00.148Z,3.27
2022-08-09T08:12:09.868Z,5.28
2022-08-09T08:14:06.446Z,4.30
2022-08-09T08:16:34.607Z,4.82
2022-08-09T08:19:03.010Z,4.03
2022-08-09T08:21:30.614Z,4.40
2022-08-09T08:23:57.368Z,4.38
2022-08-09T08:26:54.528Z,3.58
2022-08-09T08:29:15.091Z,3.50
2022-08-09T08:32:03.205Z,2.88
2022-08-09T08:34:33.698Z,4.60
2022-08-09T08:37:02.540Z,6.18
2022-08-09T08:39:29.357Z,4.90
2022-08-09T08:42:06.434Z,3.95
2022-08-09T08:44:37.392Z,3.03
2022-08-09T08:47:12.333Z,4.33
2022-08-09T08:49:48.358Z,2.63
2022-08-09T08:55:08.843Z,2.22
2022-08-09T08:57:37.527Z,4.20
2022-08-09T09:00:13.097Z,2.43
2022-08-09T09:02:52.851Z,3.55
2022-08-09T09:05:57.890Z,4.20
2022-08-09T09:08:30.667Z,2.00
2022-08-09T09:11:03.546Z,3.58
2022-08-09T09:13:55.029Z,4.27
2022-08-09T09:16:30.708Z,2.80
2022-08-09T09:19:37.745Z,3.88
2022-08-09T09:22:11.890Z,2.72
2022-08-09T09:24:52.178Z,3.67
2022-08-09T09:28:04.273Z,4.47
2022-08-09T09:30:28.725Z,2.63
2022-08-09T09:33:17.098Z,3.65
2022-08-09T09:36:11.771Z,2.97
2022-08-09T09:38:56.853Z,2.40
2022-08-09T09:41:27.726Z,3.30
2022-08-09T09:44:10.629Z,2.85
2022-08-09T09:46:50.622Z,4.10
2022-08-09T09:49:32.082Z,2.65
2022-08-09T09:52:33.710Z,1.85
2022-08-09T09:55:16.175Z,2.70
2022-08-09T09:58:16.353Z,1.92
2022-08-09T10:00:53.033Z,1.80
2022-08-09T10:03:58.160Z,2.78
2022-08-09T10:06:42.441Z,2.00
2022-08-09T10:09:22.564Z,1.93
2022-08-09T10:12:11.801Z,2.58
2022-08-09T10:14:47.725Z,2.22
2022-08-09T10:17:39.235Z,2.03
2022-08-09T10:20:06.058Z,1.92
2022-08-09T10:22:42.120Z,2.57
2022-08-09T10:25:12.147Z,1.67
2022-08-09T10:27:57.562Z,1.58
2022-08-09T10:33:44.846Z,2.30
2022-08-09T10:36:02.658Z,2.70
2022-08-09T10:38:54.578Z,4.27
2022-08-09T10:41:20.687Z,3.60
2022-08-09T10:43:58.741Z,1.67
2022-08-09T10:46:52.580Z,3.10
2022-08-09T10:49:51.649Z,1.60
2022-08-09T10:52:56.191Z,2.65
2022-08-09T10:55:28.779Z,2.63
2022-08-09T10:58:37.125Z,2.40
2022-08-09T11:03:02.591Z,2.50
2022-08-09T11:04:27.995Z,2.73
2022-08-09T11:07:00.746Z,2.42
2022-08-09T11:09:47.656Z,2.72
2022-08-09T11:12:17.654Z,2.63
2022-08-09T11:14:54.894Z,2.38
2022-08-09T11:17:22.774Z,1.47
2022-08-09T11:20:10.561Z,2.00
2022-08-09T11:22:45.798Z,3.70
2022-08-09T11:25:25.938Z,2.70
2022-08-09T11:28:54.381Z,1.73
2022-08-09T11:31:48.862Z,1.70
2022-08-09T11:34:43.585Z,1.95
2022-08-09T11:37:17.925Z,1.58
2022-08-09T11:40:05.990Z,2.40
2022-08-09T11:42:43.475Z,2.03
2022-08-09T11:45:20.267Z,1.90
2022-08-09T11:47:52.732Z,2.65
2022-08-09T11:50:55.856Z,2.45
2022-08-09T11:53:58.656Z,1.45
2022-08-09T11:56:02.578Z,1.40
2022-08-09T11:58:33.032Z,1.30
2022-08-09T12:01:03.307Z,3.38
2022-08-09T12:03:55.679Z,2.28
2022-08-09T12:06:32.866Z,1.98
2022-08-09T12:09:15.272Z,1.20
2022-08-09T12:12:02.243Z,2.93
2022-08-09T12:14:40.628Z,1.80
2022-08-09T12:17:34.023Z,2.15
2022-08-09T12:20:16.476Z,2.70
2022-08-09T12:22:52.008Z,4.30
2022-08-09T12:25:35.992Z,2.73
2022-08-09T12:29:11.739Z,4.70
2022-08-09T12:31:10.712Z,1.23
2022-08-09T12:33:59.054Z,2.20
2022-08-09T12:36:32.147Z,1.70
2022-08-09T12:39:01.669Z,1.77
2022-08-09T12:41:39.165Z,2.17
2022-08-09T12:44:09.784Z,1.52
2022-08-09T12:46:49.180Z,2.88
2022-08-09T12:49:18.227Z,1.83
2022-08-09T12:52:02.039Z,2.97
2022-08-09T12:54:30.960Z,1.85
2022-08-09T12:56:58.856Z,2.13
2022-08-09T12:59:57.468Z,1.63
2022-08-09T13:02:17.644Z,2.15
2022-08-09T13:05:02.341Z,3.80
2022-08-09T13:07:51.123Z,1.25
2022-08-09T13:10:17.293Z,1.58
2022-08-09T13:13:09.127Z,1.20
2022-08-09T13:15:35.892Z,2.80
2022-08-09T13:18:09.370Z,2.70
2022-08-09T13:21:04.145Z,1.75
2022-08-09T13:24:07.141Z,1.42
2022-08-09T13:26:36.470Z,1.73
2022-08-09T13:29:13.435Z,3.60
2022-08-09T13:32:16.645Z,1.00
2022-08-09T13:34:48.573Z,2.20
2022-08-09T13:37:24.680Z,1.20
2022-08-09T13:41:55.139Z,2.30
2022-08-09T13:42:56.437Z,1.92
2022-08-09T13:45:32.290Z,3.37
2022-08-09T13:48:10.816Z,1.13
2022-08-09T13:50:37.868Z,4.15
2022-08-09T13:53:05.358Z,4.40
2022-08-09T13:55:34.910Z,1.85
2022-08-09T13:58:05.043Z,2.63
2022-08-09T14:00:48.189Z,2.42
2022-08-09T14:04:03.021Z,3.00
2022-08-09T14:06:19.397Z,3.53
2022-08-09T14:08:52.779Z,4.22
2022-08-09T14:11:20.083Z,1.97
2022-08-09T14:14:22.539Z,2.08
2022-08-09T14:16:34.606Z,2.75
2022-08-09T14:19:01.476Z,2.35
2022-08-09T14:21:29.618Z,2.65
2022-08-09T14:24:05.431Z,3.03
2022-08-09T14:26:46.940Z,2.42
2022-08-09T14:30:15.180Z,2.80
2022-08-09T14:32:11.240Z,3.08
2022-08-09T14:34:40.867Z,3.22
2022-08-09T14:37:08.586Z,2.23
2022-08-09T14:39:46.829Z,1.50
2022-08-09T14:42:30.724Z,3.50
2022-08-09T14:45:14.739Z,3.78
2022-08-09T14:47:56.715Z,2.30
2022-08-09T14:50:25.011Z,3.37
2022-08-09T14:52:51.809Z,5.65
2022-08-09T14:55:20.293Z,5.47
2022-08-09T14:57:48.991Z,3.85
2022-08-09T15:00:16.339Z,4.20
2022-08-09T15:02:47.483Z,2.10
2022-08-09T15:05:19.215Z,4.38
2022-08-09T15:07:54.535Z,2.85
2022-08-09T15:10:27.047Z,3.22
2022-08-09T15:12:55.631Z,2.15
2022-08-09T15:15:23.807Z,2.83
2022-08-09T15:17:53.099Z,3.83
2022-08-09T15:22:00.869Z,2.58
2022-08-09T15:23:55.909Z,2.67
2022-08-09T15:25:57.393Z,2.33
2022-08-09T15:28:28.182Z,1.70
2022-08-09T15:31:08.758Z,2.55
2022-08-09T15:34:27.454Z,2.45
2022-08-09T15:36:29.041Z,2.70
2022-08-09T15:39:00.167Z,3.72
2022-08-09T15:41:31.684Z,3.23
2022-08-09T15:44:03.703Z,9.77
2022-08-09T15:46:34.285Z,2.80
2022-08-09T15:49:21.279Z,3.00
2022-08-09T15:52:05.196Z,2.60
2022-08-09T15:54:44.652Z,2.03
2022-08-09T15:57:34.267Z,4.13
2022-08-09T16:00:25.287Z,4.00
2022-08-09T16:02:54.931Z,2.35
2022-08-09T16:05:47.082Z,2.05
2022-08-09T16:08:30.707Z,3.40
2022-08-09T16:11:00.048Z,2.65
2022-08-09T16:14:04.114Z,3.55
2022-08-09T16:16:18.461Z,2.33
2022-08-09T16:18:46.748Z,4.00
2022-08-09T16:21:17.253Z,3.50
2022-08-09T16:23:58.579Z,3.15
2022-08-09T16:26:34.168Z,3.53
2022-08-09T16:29:11.191Z,2.42
2022-08-09T16:32:20.130Z,3.45
2022-08-09T16:34:55.281Z,3.37
2022-08-09T16:37:17.811Z,4.60
2022-08-09T16:40:02.588Z,4.05
2022-08-09T16:42:31.874Z,3.72
2022-08-09T16:44:58.649Z,2.05
2022-08-09T16:48:39.565Z,1.80
2022-08-09T16:50:29.131Z,1.90
2022-08-09T16:52:57.802Z,3.78
2022-08-09T16:55:24.633Z,3.30
2022-08-09T16:58:09.789Z,2.50
2022-08-09T17:00:38.774Z,2.90
2022-08-09T17:03:13.179Z,4.45
2022-08-09T17:06:06.669Z,2.70
2022-08-09T17:08:45.476Z,3.67
2022-08-09T17:11:24.406Z,6.68
2022-08-09T17:14:01.205Z,3.40
2022-08-09T17:16:29.258Z,2.40
2022-08-09T17:18:56.578Z,3.60
2022-08-09T17:21:25.141Z,2.38
2022-08-09T17:24:28.503Z,3.25
2022-08-09T17:26:42.887Z,3.87
2022-08-09T17:29:20.623Z,3.13
2022-08-09T17:31:49.159Z,2.08
2022-08-09T17:35:02.105Z,3.05
2022-08-09T17:37:04.130Z,4.10
2022-08-09T17:39:52.066Z,3.00
2022-08-09T17:42:55.318Z,3.70
2022-08-09T17:45:06.306Z,2.95
2022-08-09T17:47:49.727Z,4.07
2022-08-09T17:50:24.909Z,3.47
2022-08-09T17:53:10.359Z,3.13
2022-08-09T17:55:55.735Z,2.72
2022-08-09T17:58:26.703Z,2.22
2022-08-09T18:00:56.336Z,2.15
2022-08-09T18:03:24.305Z,2.55
2022-08-09T18:05:54.760Z,3.00
2022-08-09T18:08:27.417Z,3.10
2022-08-09T18:11:02.053Z,2.08
2022-08-09T18:13:39.643Z,3.53
2022-08-09T18:16:29.307Z,3.97
2022-08-09T18:19:03.447Z,4.07
2022-08-09T18:21:41.256Z,4.32
2022-08-09T18:24:14.463Z,3.13
2022-08-09T18:26:45.855Z,2.95
2022-08-09T18:30:42.911Z,2.58
2022-08-09T18:32:05.336Z,3.87
2022-08-09T18:34:35.112Z,2.80
2022-08-09T18:37:10.165Z,5.72
2022-08-09T18:39:54.060Z,5.93
2022-08-09T18:42:21.097Z,5.68
2022-08-09T18:44:55.078Z,2.80
2022-08-09T18:47:24.012Z,2.08
2022-08-09T18:49:54.502Z,3.92
2022-08-09T18:52:34.692Z,2.63
2022-08-09T18:55:02.842Z,3.75
2022-08-09T18:57:42.622Z,2.47
2022-08-09T19:00:11.998Z,4.63
2022-08-09T19:02:45.934Z,3.47
2022-08-09T19:05:20.537Z,3.70
2022-08-09T19:08:03.585Z,3.38
2022-08-09T19:10:37.426Z,2.70
2022-08-09T19:13:18.590Z,3.03
2022-08-09T19:15:49.943Z,2.53
2022-08-09T19:18:33.448Z,3.25
2022-08-09T19:21:05.510Z,3.33
2022-08-09T19:24:36.495Z,3.53
2022-08-09T19:26:31.201Z,1.58
2022-08-09T19:29:03.175Z,3.25
2022-08-09T19:31:44.071Z,2.92
2022-08-09T19:34:21.582Z,2.20
2022-08-09T19:36:51.908Z,3.13
2022-08-09T19:39:20.656Z,2.80
2022-08-09T19:41:56.488Z,3.60
2022-08-09T19:44:23.758Z,4.68
2022-08-09T19:46:53.849Z,2.90
2022-08-09T19:50:09.777Z,2.87
2022-08-09T19:52:12.349Z,3.83
2022-08-09T19:54:39.823Z,2.58
2022-08-09T19:57:08.528Z,2.05
2022-08-09T19:59:59.693Z,3.65
2022-08-09T20:04:10.570Z,4.70
2022-08-09T20:05:14.991Z,4.43
2022-08-09T20:07:59.445Z,3.97
2022-08-09T20:10:34.780Z,2.40
2022-08-09T20:13:05.192Z,3.70
2022-08-09T20:16:35.408Z,5.63
2022-08-09T20:18:20.130Z,3.38
2022-08-09T20:20:50.497Z,2.25
2022-08-09T20:23:21.037Z,3.70
2022-08-09T20:25:52.017Z,3.42
2022-08-09T20:28:34.295Z,5.03
2022-08-09T20:31:05.724Z,3.30
2022-08-09T20:33:40.962Z,2.65
2022-08-09T20:36:14.304Z,3.85
2022-08-09T20:39:28.318Z,3.97
2022-08-09T20:41:35.421Z,4.07
2022-08-09T20:44:06.991Z,3.45
2022-08-09T20:46:44.271Z,2.53
2022-08-09T20:49:12.883Z,2.58
2022-08-09T20:51:45.363Z,2.22
2022-08-09T20:54:18.106Z,2.10
2022-08-09T20:56:49.387Z,4.15
2022-08-09T20:59:17.439Z,9.82
2022-08-09T21:01:51.076Z,3.42
2022-08-09T21:05:56.901Z,3.70
2022-08-09T21:07:11.360Z,5.20
2022-08-09T21:09:56.769Z,3.60
2022-08-09T21:15:14.915Z,4.32
2022-08-09T21:18:12.009Z,4.35
2022-08-09T21:20:30.669Z,6.50
2022-08-09T21:23:01.313Z,3.85
2022-08-09T21:25:56.115Z,3.35
2022-08-09T21:28:34.303Z,2.75
2022-08-09T21:31:16.192Z,3.28
2022-08-09T21:33:46.258Z,5.70
2022-08-09T21:36:18.236Z,3.47
2022-08-09T21:38:45.708Z,5.47
2022-08-09T21:41:25.607Z,3.97
2022-08-09T21:44:10.671Z,2.33
2022-08-09T21:46:37.377Z,4.87
2022-08-09T21:49:04.123Z,2.88
2022-08-09T21:51:36.351Z,3.58
2022-08-09T21:54:10.704Z,2.92
2022-08-09T21:56:44.811Z,4.75
2022-08-09T21:59:23.369Z,3.53
2022-08-09T22:02:01.115Z,3.28
2022-08-09T22:04:55.027Z,4.00
2022-08-09T22:07:35.393Z,5.25
2022-08-09T22:10:05.493Z,6.78
2022-08-09T22:12:32.352Z,2.57
2022-08-09T22:14:59.574Z,5.50
2022-08-09T22:17:28.023Z,3.65
2022-08-09T22:20:00.622Z,4.32
2022-08-09T22:22:28.698Z,4.10
2022-08-09T22:26:05.663Z,2.83
2022-08-09T22:27:42.307Z,2.40
2022-08-09T22:30:10.118Z,4.80
2022-08-09T22:32:37.787Z,4.57
2022-08-09T22:35:59.974Z,3.03
2022-08-09T22:38:07.263Z,3.77
2022-08-09T22:40:35.478Z,2.95
2022-08-09T22:43:16.063Z,3.50
2022-08-09T22:48:12.973Z,3.53
2022-08-09T22:48:34.996Z,2.95
2022-08-09T22:51:10.761Z,2.83
2022-08-09T22:54:02.230Z,6.68
2022-08-09T22:56:34.272Z,4.15
2022-08-09T22:59:57.671Z,3.90
2022-08-09T23:01:52.413Z,2.80
2022-08-09T23:04:19.774Z,4.83
2022-08-09T23:07:11.301Z,2.10
2022-08-09T23:09:40.871Z,3.40
2022-08-09T23:12:08.104Z,2.97
2022-08-09T23:14:41.798Z,2.65
2022-08-09T23:17:10.294Z,3.03
2022-08-09T23:20:02.478Z,2.90
2022-08-09T23:22:24.324Z,4.07
2022-08-09T23:24:51.297Z,3.30
2022-08-09T23:27:18.124Z,2.60
2022-08-09T23:29:45.911Z,4.93
2022-08-09T23:32:12.673Z,6.53
2022-08-09T23:34:39.732Z,2.97
2022-08-09T23:37:06.801Z,5.53
2022-08-09T23:39:33.697Z,3.15
2022-08-09T23:42:00.512Z,3.83
2022-08-09T23:44:27.280Z,5.45
2022-08-09T23:46:57.242Z,4.80
2022-08-09T23:49:25.268Z,2.95
2022-08-09T23:51:53.021Z,2.90
2022-08-09T23:54:20.259Z,2.70
2022-08-09T23:56:53.616Z,2.50
2022-08-09T23:59:22.805Z,5.20
